Time;durP1;ratioP1;P1;durP2;ratioP2;P2;SDS_P1;SDS_P2;PMS_P1;PMS_P2;Temp;Humidity;BMP_temperature;BMP_pressure;BME280_temperature;BME280_humidity;BME280_pressure;Samples;Min_cycle;Max_cycle;Signal;HPM_P1;HPM_P2
2021/12/19 00:01:09;;;;;;;43.60;24.30;;;;;;;;;;4959339;29;20908;-72
2021/12/19 00:04:26;;;;;;;44.07;24.47;;;;;;;;;;4947003;29;21096;-72
2021/12/19 00:10:53;;;;;;;44.13;24.67;;;;;;;;;;4939348;29;20628;-72
2021/12/19 00:13:57;;;;;;;49.97;25.47;;;;;;;;;;4930553;29;20615;-71
2021/12/19 00:17:02;;;;;;;47.83;24.83;;;;;;;;;;4947271;29;20539;-71
2021/12/19 00:20:06;;;;;;;50.87;26.33;;;;;;;;;;4946153;29;20600;-71
2021/12/19 00:23:11;;;;;;;46.17;25.37;;;;;;;;;;4935649;29;21178;-72
2021/12/19 00:26:17;;;;;;;49.57;24.37;;;;;;;;;;4958323;29;20597;-72
2021/12/19 00:29:21;;;;;;;49.00;26.30;;;;;;;;;;4946417;29;20602;-71
2021/12/19 00:32:25;;;;;;;49.70;27.00;;;;;;;;;;4958258;29;20649;-71
2021/12/19 00:35:30;;;;;;;48.30;26.33;;;;;;;;;;4958100;29;20642;-72
2021/12/19 00:38:34;;;;;;;45.90;25.13;;;;;;;;;;4958079;29;20602;-71
2021/12/19 00:41:38;;;;;;;48.80;25.30;;;;;;;;;;4958463;29;21223;-72
2021/12/19 00:44:44;;;;;;;46.60;24.57;;;;;;;;;;4958011;29;20596;-72
2021/12/19 00:47:49;;;;;;;43.53;24.10;;;;;;;;;;4942161;29;20623;-72
2021/12/19 00:50:53;;;;;;;40.30;23.23;;;;;;;;;;4957967;29;20570;-72
2021/12/19 00:53:57;;;;;;;36.73;20.63;;;;;;;;;;4946336;29;20581;-71
2021/12/19 00:57:01;;;;;;;40.57;22.13;;;;;;;;;;4958117;29;20607;-71
2021/12/19 01:00:08;;;;;;;44.60;22.07;;;;;;;;;;4926990;29;20606;-71
2021/12/19 01:03:12;;;;;;;40.00;21.47;;;;;;;;;;4938614;29;20549;-71
2021/12/19 01:06:18;;;;;;;42.37;22.13;;;;;;;;;;4938541;29;20969;-71
2021/12/19 01:09:22;;;;;;;42.83;23.30;;;;;;;;;;4942045;29;20597;-71
2021/12/19 01:12:27;;;;;;;48.27;24.50;;;;;;;;;;4958004;28;20653;-72
2021/12/19 01:15:31;;;;;;;42.90;23.13;;;;;;;;;;4957311;29;20646;-71
2021/12/19 01:18:36;;;;;;;42.87;23.63;;;;;;;;;;4947421;29;20611;-72
2021/12/19 01:21:40;;;;;;;42.47;23.77;;;;;;;;;;4957521;29;20643;-71
2021/12/19 01:24:44;;;;;;;44.57;23.90;;;;;;;;;;4956275;29;20630;-71
2021/12/19 01:27:49;;;;;;;45.67;22.03;;;;;;;;;;4957374;29;20630;-72
2021/12/19 01:30:53;;;;;;;43.10;22.83;;;;;;;;;;4956954;29;20634;-71
2021/12/19 01:33:57;;;;;;;47.30;23.00;;;;;;;;;;4945396;29;20687;-71
2021/12/19 01:37:02;;;;;;;39.73;21.13;;;;;;;;;;4945458;29;21112;-71
2021/12/19 01:40:08;;;;;;;46.63;23.00;;;;;;;;;;4938021;29;20544;-72
2021/12/19 01:43:12;;;;;;;49.23;23.40;;;;;;;;;;4945160;29;20645;-72
2021/12/19 01:46:16;;;;;;;47.30;24.37;;;;;;;;;;4956228;29;20604;-71
2021/12/19 01:49:22;;;;;;;56.37;25.70;;;;;;;;;;4944865;29;20630;-72
2021/12/19 01:52:28;;;;;;;65.50;23.33;;;;;;;;;;4956796;29;20647;-71
2021/12/19 01:55:34;;;;;;;59.93;22.93;;;;;;;;;;4944944;29;20606;-72
2021/12/19 01:58:38;;;;;;;47.13;23.03;;;;;;;;;;4956571;29;20991;-71
2021/12/19 02:01:42;;;;;;;53.93;24.73;;;;;;;;;;4956589;29;20637;-71
2021/12/19 02:04:46;;;;;;;49.97;25.00;;;;;;;;;;4944378;29;20596;-72
2021/12/19 02:07:52;;;;;;;70.20;25.83;;;;;;;;;;4956832;29;20946;-71
2021/12/19 02:10:57;;;;;;;55.07;25.20;;;;;;;;;;4956347;29;20626;-71
2021/12/19 02:14:03;;;;;;;65.00;24.20;;;;;;;;;;4956173;29;20602;-71
2021/12/19 02:17:07;;;;;;;44.47;22.80;;;;;;;;;;4956650;29;20599;-72
2021/12/19 02:20:13;;;;;;;59.33;23.27;;;;;;;;;;4956208;28;20551;-72
2021/12/19 02:23:18;;;;;;;67.93;22.13;;;;;;;;;;4946794;29;20594;-72
2021/12/19 02:26:22;;;;;;;58.53;21.60;;;;;;;;;;4956633;29;20897;-71
2021/12/19 02:29:26;;;;;;;52.53;21.07;;;;;;;;;;4944737;29;20550;-71
2021/12/19 02:32:31;;;;;;;42.03;20.60;;;;;;;;;;4943852;29;20670;-71
2021/12/19 02:35:36;;;;;;;38.80;19.20;;;;;;;;;;4956120;29;20619;-71
2021/12/19 02:48:37;;;;;;;27.47;13.97;;;;;;;;;;4936182;29;20552;-71
2021/12/19 02:51:41;;;;;;;36.43;15.97;;;;;;;;;;4938359;29;20638;-72
2021/12/19 02:54:45;;;;;;;48.13;15.70;;;;;;;;;;4936907;29;20554;-71
2021/12/19 02:57:50;;;;;;;38.00;16.27;;;;;;;;;;4954222;29;20578;-71
2021/12/19 03:00:55;;;;;;;38.37;16.90;;;;;;;;;;4955602;29;20550;-71
2021/12/19 03:03:59;;;;;;;66.63;18.77;;;;;;;;;;4925316;29;20544;-71
2021/12/19 03:07:03;;;;;;;50.23;19.67;;;;;;;;;;4924687;29;20607;-71
2021/12/19 03:20:05;;;;;;;45.37;19.00;;;;;;;;;;4955518;29;20567;-71
2021/12/19 03:23:12;;;;;;;39.60;17.90;;;;;;;;;;4955015;29;20654;-71
2021/12/19 03:26:16;;;;;;;36.73;18.47;;;;;;;;;;4954973;29;20630;-71
2021/12/19 03:29:19;;;;;;;55.63;19.07;;;;;;;;;;4943346;29;20573;-72
2021/12/19 03:32:25;;;;;;;46.83;18.27;;;;;;;;;;4942704;28;20659;-71
2021/12/19 03:35:31;;;;;;;55.00;17.83;;;;;;;;;;4955190;29;20620;-71
2021/12/19 03:38:40;;;;;;;52.90;17.07;;;;;;;;;;4943288;29;20617;-71
2021/12/19 03:41:44;;;;;;;39.07;17.67;;;;;;;;;;4954533;29;20654;-71
2021/12/19 03:44:48;;;;;;;34.43;17.00;;;;;;;;;;4954701;29;20630;-71
2021/12/19 03:47:52;;;;;;;38.03;17.17;;;;;;;;;;4943468;29;20543;-71
2021/12/19 03:50:58;;;;;;;39.23;17.30;;;;;;;;;;4954285;29;20562;-72
2021/12/19 03:54:02;;;;;;;43.97;17.10;;;;;;;;;;4945992;29;20598;-71
2021/12/19 03:57:06;;;;;;;41.30;17.40;;;;;;;;;;4954541;29;20618;-72
2021/12/19 04:00:14;;;;;;;36.03;16.47;;;;;;;;;;4952797;29;20586;-71
2021/12/19 04:03:21;;;;;;;33.87;16.23;;;;;;;;;;4942983;29;20602;-71
2021/12/19 04:06:25;;;;;;;38.87;15.83;;;;;;;;;;4954780;29;20567;-71
2021/12/19 04:09:29;;;;;;;32.87;15.47;;;;;;;;;;4954845;29;20551;-71
2021/12/19 04:12:33;;;;;;;36.70;16.47;;;;;;;;;;4954670;29;20671;-72
2021/12/19 04:15:38;;;;;;;37.27;15.33;;;;;;;;;;4954711;29;20562;-71
2021/12/19 04:18:42;;;;;;;33.27;16.07;;;;;;;;;;4954985;29;20555;-71
2021/12/19 04:21:46;;;;;;;33.50;14.73;;;;;;;;;;4954363;29;20661;-71
2021/12/19 04:24:50;;;;;;;36.00;14.27;;;;;;;;;;4935530;29;20547;-71
2021/12/19 04:27:55;;;;;;;33.63;14.57;;;;;;;;;;4935659;29;20566;-71
2021/12/19 04:31:00;;;;;;;29.87;14.00;;;;;;;;;;4944730;29;20608;-71
2021/12/19 04:34:05;;;;;;;32.43;14.33;;;;;;;;;;4942600;29;20602;-71
2021/12/19 04:37:31;;;;;;;31.20;14.50;;;;;;;;;;4954269;29;20634;-71
2021/12/19 04:41:09;;;;;;;27.23;12.43;;;;;;;;;;4954347;29;20547;-72
2021/12/19 04:57:37;;;;;;;27.17;13.43;;;;;;;;;;4958365;29;20616;-71
2021/12/19 05:00:59;;;;;;;24.77;12.53;;;;;;;;;;4957616;29;20612;-72
2021/12/19 05:14:15;;;;;;;24.27;11.33;;;;;;;;;;4945618;29;20626;-72
2021/12/19 05:17:24;;;;;;;24.23;11.57;;;;;;;;;;4946053;29;21160;-71
2021/12/19 05:20:29;;;;;;;24.57;11.63;;;;;;;;;;4945540;29;20963;-72
2021/12/19 05:23:51;;;;;;;24.53;10.27;;;;;;;;;;4957427;29;20601;-71
2021/12/19 05:26:55;;;;;;;22.27;10.17;;;;;;;;;;4957675;29;20554;-72
2021/12/19 05:29:59;;;;;;;24.07;11.33;;;;;;;;;;4957016;29;20984;-72
2021/12/19 05:33:05;;;;;;;23.90;10.53;;;;;;;;;;4957008;29;20649;-73
2021/12/19 05:46:02;;;;;;;20.07;10.33;;;;;;;;;;4945471;29;20551;-72
2021/12/19 05:49:07;;;;;;;21.00;9.87;;;;;;;;;;4945451;29;20618;-73
2021/12/19 05:52:12;;;;;;;22.33;10.13;;;;;;;;;;4944976;29;20972;-72
2021/12/19 05:55:17;;;;;;;22.00;10.40;;;;;;;;;;4942248;29;20992;-72
2021/12/19 05:58:20;;;;;;;22.70;11.20;;;;;;;;;;4957054;29;21121;-72
2021/12/19 06:01:25;;;;;;;19.33;9.63;;;;;;;;;;4956438;29;20662;-72
2021/12/19 06:04:29;;;;;;;18.00;9.20;;;;;;;;;;4956520;29;20595;-72
2021/12/19 06:07:34;;;;;;;23.43;10.33;;;;;;;;;;4950665;29;21202;-73
2021/12/19 06:10:38;;;;;;;19.37;9.40;;;;;;;;;;4956125;29;20634;-73
2021/12/19 06:13:41;;;;;;;16.60;8.43;;;;;;;;;;4957080;29;20543;-72
2021/12/19 06:16:46;;;;;;;18.90;9.03;;;;;;;;;;4955528;29;20985;-72
2021/12/19 06:19:50;;;;;;;17.10;9.17;;;;;;;;;;4944648;29;20953;-72
2021/12/19 06:22:54;;;;;;;17.10;8.90;;;;;;;;;;4944205;29;20651;-72
2021/12/19 06:25:59;;;;;;;18.53;8.60;;;;;;;;;;4956048;29;20953;-72
2021/12/19 06:29:04;;;;;;;17.47;7.70;;;;;;;;;;4937311;29;20607;-72
2021/12/19 06:32:08;;;;;;;18.27;8.57;;;;;;;;;;4948272;29;20646;-72
2021/12/19 06:35:18;;;;;;;15.03;8.30;;;;;;;;;;4943862;29;20665;-72
2021/12/19 06:38:22;;;;;;;17.80;8.40;;;;;;;;;;4955632;29;20662;-72
2021/12/19 06:41:27;;;;;;;19.90;7.80;;;;;;;;;;4937011;29;20624;-72
2021/12/19 06:44:32;;;;;;;16.73;8.67;;;;;;;;;;4949610;29;20583;-72
2021/12/19 06:47:37;;;;;;;18.53;8.03;;;;;;;;;;4956167;29;20543;-72
2021/12/19 06:50:41;;;;;;;21.23;9.00;;;;;;;;;;4955958;29;20555;-72
2021/12/19 06:53:45;;;;;;;26.33;10.97;;;;;;;;;;4955322;29;20590;-72
2021/12/19 06:56:49;;;;;;;44.23;19.00;;;;;;;;;;4941753;29;21024;-72
2021/12/19 06:59:53;;;;;;;64.13;28.07;;;;;;;;;;4926580;29;20595;-72
2021/12/19 07:02:57;;;;;;;31.67;16.40;;;;;;;;;;4942799;29;20646;-72
2021/12/19 07:06:02;;;;;;;32.10;15.57;;;;;;;;;;4955643;29;21143;-72
2021/12/19 07:09:06;;;;;;;30.33;13.57;;;;;;;;;;4948627;29;20614;-72
2021/12/19 07:12:10;;;;;;;31.20;15.37;;;;;;;;;;4954680;29;20665;-72
2021/12/19 07:15:14;;;;;;;25.73;12.00;;;;;;;;;;4954387;29;21198;-72
2021/12/19 07:18:18;;;;;;;23.40;11.50;;;;;;;;;;4920904;29;20637;-72
2021/12/19 07:21:24;;;;;;;23.50;10.27;;;;;;;;;;4954946;29;20666;-72
2021/12/19 07:24:28;;;;;;;27.80;11.23;;;;;;;;;;4942742;29;20599;-72
2021/12/19 07:27:32;;;;;;;21.97;10.83;;;;;;;;;;4955414;29;21189;-72
2021/12/19 07:30:38;;;;;;;25.53;11.37;;;;;;;;;;4935821;29;20665;-72
2021/12/19 07:33:44;;;;;;;22.80;11.20;;;;;;;;;;4947655;29;20594;-72
2021/12/19 07:36:52;;;;;;;21.00;9.67;;;;;;;;;;4955360;29;20604;-72
2021/12/19 07:40:09;;;;;;;18.57;8.77;;;;;;;;;;4944027;29;20584;-72
2021/12/19 07:43:14;;;;;;;18.80;8.87;;;;;;;;;;4954485;29;20583;-72
2021/12/19 07:46:18;;;;;;;17.60;8.60;;;;;;;;;;4942926;29;20591;-72
2021/12/19 07:49:22;;;;;;;15.40;7.83;;;;;;;;;;4954708;29;20587;-72
2021/12/19 07:52:26;;;;;;;13.97;6.63;;;;;;;;;;4947042;29;20654;-72
2021/12/19 07:55:31;;;;;;;13.57;6.80;;;;;;;;;;4950109;29;20933;-71
2021/12/19 07:58:35;;;;;;;14.80;6.70;;;;;;;;;;4923844;29;20639;-72
2021/12/19 08:01:39;;;;;;;12.67;6.20;;;;;;;;;;4951038;29;20646;-71
2021/12/19 08:04:43;;;;;;;15.97;7.33;;;;;;;;;;4946494;29;20587;-71
2021/12/19 08:07:54;;;;;;;15.13;7.17;;;;;;;;;;4940719;29;20587;-71
2021/12/19 08:14:22;;;;;;;14.27;7.13;;;;;;;;;;4942118;29;20599;-72
2021/12/19 08:17:26;;;;;;;14.10;6.70;;;;;;;;;;4954123;29;20658;-71
2021/12/19 08:20:30;;;;;;;14.10;7.13;;;;;;;;;;4958001;29;20934;-71
2021/12/19 08:23:36;;;;;;;13.53;7.30;;;;;;;;;;4958290;29;20595;-72
2021/12/19 08:26:45;;;;;;;13.60;6.10;;;;;;;;;;4946217;29;20934;-72
2021/12/19 08:29:49;;;;;;;22.73;14.13;;;;;;;;;;4954106;29;20591;-71
2021/12/19 08:32:55;;;;;;;21.57;11.50;;;;;;;;;;4944442;29;20658;-74
2021/12/19 08:35:59;;;;;;;26.30;11.90;;;;;;;;;;4957831;29;20637;-72
2021/12/19 08:39:04;;;;;;;27.27;12.50;;;;;;;;;;4945719;29;20634;-72
2021/12/19 08:42:09;;;;;;;25.30;12.90;;;;;;;;;;4946271;29;20639;-73
2021/12/19 08:45:15;;;;;;;14.80;8.07;;;;;;;;;;4934608;29;20592;-72
2021/12/19 08:48:20;;;;;;;14.90;8.83;;;;;;;;;;4956767;29;20634;-73
2021/12/19 08:51:26;;;;;;;13.90;8.20;;;;;;;;;;4927183;29;20619;-74
2021/12/19 08:54:30;;;;;;;13.53;6.90;;;;;;;;;;4938783;29;20553;-76
2021/12/19 08:57:34;;;;;;;20.47;12.73;;;;;;;;;;4941398;29;20634;-74
2021/12/19 09:00:39;;;;;;;26.53;16.63;;;;;;;;;;4940680;29;20611;-74
2021/12/19 09:03:42;;;;;;;13.87;8.07;;;;;;;;;;4956244;29;20619;-74
2021/12/19 09:06:47;;;;;;;14.03;6.50;;;;;;;;;;4926863;29;20907;-74
2021/12/19 09:09:51;;;;;;;25.47;14.80;;;;;;;;;;4938496;29;20552;-74
2021/12/19 09:12:55;;;;;;;16.17;8.43;;;;;;;;;;4938239;29;20634;-74
2021/12/19 09:16:00;;;;;;;13.13;7.03;;;;;;;;;;4926573;29;21182;-75
2021/12/19 09:19:04;;;;;;;12.70;5.77;;;;;;;;;;4938465;29;20595;-74
2021/12/19 09:22:08;;;;;;;13.80;7.93;;;;;;;;;;4926519;29;20623;-74
2021/12/19 09:25:13;;;;;;;14.33;6.87;;;;;;;;;;4937530;29;20907;-74
2021/12/19 09:28:18;;;;;;;8.63;5.43;;;;;;;;;;4938045;29;21101;-74
2021/12/19 09:31:22;;;;;;;11.60;6.27;;;;;;;;;;4936944;29;20635;-74
2021/12/19 09:34:27;;;;;;;17.20;7.90;;;;;;;;;;4926206;29;20670;-76
2021/12/19 09:37:35;;;;;;;8.93;5.67;;;;;;;;;;4937068;29;20651;-74
2021/12/19 09:40:40;;;;;;;11.80;6.90;;;;;;;;;;4926174;29;21114;-74
2021/12/19 09:43:45;;;;;;;11.10;6.00;;;;;;;;;;4922897;29;20572;-74
2021/12/19 09:46:50;;;;;;;10.50;5.80;;;;;;;;;;4933723;29;20572;-74
2021/12/19 09:49:54;;;;;;;13.03;8.03;;;;;;;;;;4934586;29;20553;-74
2021/12/19 09:52:59;;;;;;;11.70;5.57;;;;;;;;;;4922514;29;20635;-74
2021/12/19 09:56:04;;;;;;;14.67;7.47;;;;;;;;;;4922275;29;20603;-74
2021/12/19 09:59:11;;;;;;;11.20;5.47;;;;;;;;;;4922595;29;20978;-74
2021/12/19 10:02:16;;;;;;;12.93;6.80;;;;;;;;;;4922637;29;20639;-74
2021/12/19 10:05:22;;;;;;;11.37;5.97;;;;;;;;;;4911637;29;20595;-74
2021/12/19 10:08:26;;;;;;;13.10;5.93;;;;;;;;;;4933762;29;20596;-74
2021/12/19 10:15:17;;;;;;;17.70;6.53;;;;;;;;;;4943376;29;20635;-73
2021/12/19 10:18:21;;;;;;;13.87;6.50;;;;;;;;;;4953307;29;20722;-73
2021/12/19 10:21:29;;;;;;;13.30;7.00;;;;;;;;;;4952710;29;20650;-74
2021/12/19 10:24:35;;;;;;;16.60;8.20;;;;;;;;;;4952312;29;20614;-73
2021/12/19 10:27:43;;;;;;;18.53;9.07;;;;;;;;;;4952162;29;20938;-73
2021/12/19 10:30:49;;;;;;;22.83;9.70;;;;;;;;;;4939989;29;20984;-74
2021/12/19 10:33:53;;;;;;;22.10;9.83;;;;;;;;;;4935481;29;21263;-74
2021/12/19 10:36:57;;;;;;;23.50;10.57;;;;;;;;;;4945261;29;20598;-74
2021/12/19 10:40:05;;;;;;;23.83;11.43;;;;;;;;;;4923978;29;21226;-74
2021/12/19 10:43:16;;;;;;;23.23;10.20;;;;;;;;;;4931914;29;20654;-73
2021/12/19 10:46:27;;;;;;;20.37;9.80;;;;;;;;;;4943063;29;21178;-73
2021/12/19 10:49:33;;;;;;;19.60;9.23;;;;;;;;;;4940115;29;20592;-74
2021/12/19 10:52:39;;;;;;;21.20;9.47;;;;;;;;;;4942369;29;20658;-73
2021/12/19 10:55:46;;;;;;;17.03;8.57;;;;;;;;;;4930472;29;20591;-73
2021/12/19 10:58:55;;;;;;;20.00;9.53;;;;;;;;;;4938261;29;21218;-74
2021/12/19 11:01:59;;;;;;;32.97;17.07;;;;;;;;;;4940404;29;20634;-74
2021/12/19 11:05:04;;;;;;;24.10;11.17;;;;;;;;;;4951971;29;20598;-74
2021/12/19 11:08:10;;;;;;;24.13;10.27;;;;;;;;;;4951517;29;20606;-73
2021/12/19 11:11:42;;;;;;;32.17;22.43;;;;;;;;;;4945958;29;21141;-74
2021/12/19 11:14:51;;;;;;;20.67;13.23;;;;;;;;;;4940231;29;20980;-74
2021/12/19 11:17:56;;;;;;;17.97;9.13;;;;;;;;;;4951904;29;20646;-73
2021/12/19 11:21:00;;;;;;;15.87;7.63;;;;;;;;;;4932838;29;20675;-73
2021/12/19 11:24:11;;;;;;;21.40;14.00;;;;;;;;;;4921113;29;20568;-73
2021/12/19 11:27:15;;;;;;;18.07;9.80;;;;;;;;;;4921118;29;20612;-73
2021/12/19 11:30:20;;;;;;;18.23;8.50;;;;;;;;;;4935101;29;20631;-73
2021/12/19 11:33:40;;;;;;;17.13;9.57;;;;;;;;;;4951543;29;20941;-73
2021/12/19 11:37:00;;;;;;;16.80;8.23;;;;;;;;;;4942202;29;20585;-73
2021/12/19 11:40:07;;;;;;;18.07;10.47;;;;;;;;;;4943599;29;20580;-73
2021/12/19 11:43:12;;;;;;;18.47;9.00;;;;;;;;;;4931411;29;21351;-73
2021/12/19 11:46:22;;;;;;;16.23;8.50;;;;;;;;;;4934893;29;20576;-73
2021/12/19 11:49:28;;;;;;;17.10;8.87;;;;;;;;;;4920752;29;20560;-73
2021/12/19 11:52:35;;;;;;;17.00;8.43;;;;;;;;;;4932341;29;20635;-73
2021/12/19 11:55:41;;;;;;;16.03;9.23;;;;;;;;;;4950870;29;20627;-74
2021/12/19 11:58:55;;;;;;;17.83;8.30;;;;;;;;;;4939698;29;20623;-73
2021/12/19 12:02:22;;;;;;;20.20;9.17;;;;;;;;;;4948145;29;20658;-74
2021/12/19 12:05:26;;;;;;;21.00;9.97;;;;;;;;;;4950393;29;21151;-74
2021/12/19 12:08:30;;;;;;;24.13;11.07;;;;;;;;;;4951151;29;20559;-73
2021/12/19 12:11:37;;;;;;;37.27;14.57;;;;;;;;;;4938686;29;20816;-73
2021/12/19 12:14:53;;;;;;;17.67;9.07;;;;;;;;;;4939281;29;21166;-73
2021/12/19 12:17:58;;;;;;;13.07;7.03;;;;;;;;;;4939530;29;21428;-73
2021/12/19 12:21:18;;;;;;;16.70;8.60;;;;;;;;;;4939255;29;20603;-73
2021/12/19 12:24:23;;;;;;;21.07;9.47;;;;;;;;;;4951324;29;20568;-74
2021/12/19 12:27:51;;;;;;;19.87;10.90;;;;;;;;;;4951484;29;20566;-74
2021/12/19 12:30:56;;;;;;;17.13;9.77;;;;;;;;;;4920306;29;20957;-73
2021/12/19 12:34:01;;;;;;;17.60;9.00;;;;;;;;;;4943417;29;20599;-74
2021/12/19 12:37:05;;;;;;;19.53;9.20;;;;;;;;;;4939610;29;20575;-74
2021/12/19 12:43:34;;;;;;;18.70;9.80;;;;;;;;;;4950715;29;20606;-74
2021/12/19 12:46:39;;;;;;;16.70;9.50;;;;;;;;;;4920049;29;20561;-73
2021/12/19 12:49:43;;;;;;;18.53;9.60;;;;;;;;;;4932089;29;20553;-74
2021/12/19 12:52:48;;;;;;;17.43;8.70;;;;;;;;;;4919952;29;20619;-73
2021/12/19 12:56:01;;;;;;;19.33;10.40;;;;;;;;;;4930685;29;21113;-72
2021/12/19 12:59:06;;;;;;;21.77;10.97;;;;;;;;;;4933677;29;21198;-72
2021/12/19 13:02:16;;;;;;;22.47;11.63;;;;;;;;;;4934320;29;20639;-69
2021/12/19 13:05:20;;;;;;;22.00;10.57;;;;;;;;;;4952876;28;20638;-70
2021/12/19 13:08:24;;;;;;;21.20;11.13;;;;;;;;;;4958030;29;20556;-70
2021/12/19 13:11:31;;;;;;;20.23;9.93;;;;;;;;;;4957645;29;20653;-70
2021/12/19 13:14:44;;;;;;;19.43;9.47;;;;;;;;;;4957679;29;21123;-70
2021/12/19 13:17:50;;;;;;;22.73;11.63;;;;;;;;;;4957520;29;20595;-70
2021/12/19 13:21:01;;;;;;;23.00;10.80;;;;;;;;;;4945395;29;20564;-70
2021/12/19 13:24:05;;;;;;;18.00;9.47;;;;;;;;;;4957028;29;20554;-70
2021/12/19 13:27:16;;;;;;;19.50;9.70;;;;;;;;;;4957715;29;20543;-70
2021/12/19 13:30:25;;;;;;;15.60;8.43;;;;;;;;;;4957224;29;20594;-70
2021/12/19 13:33:31;;;;;;;20.00;10.47;;;;;;;;;;4948090;29;21175;-70
2021/12/19 13:36:34;;;;;;;19.17;9.73;;;;;;;;;;4957769;29;20558;-70
2021/12/19 13:39:41;;;;;;;18.97;9.93;;;;;;;;;;4957185;29;21147;-70
2021/12/19 13:42:49;;;;;;;21.03;9.63;;;;;;;;;;4945213;29;20647;-70
2021/12/19 13:45:55;;;;;;;26.03;10.80;;;;;;;;;;4956698;29;20583;-70
2021/12/19 13:49:00;;;;;;;19.47;10.63;;;;;;;;;;4957147;29;20948;-70
2021/12/19 13:52:05;;;;;;;18.53;10.33;;;;;;;;;;4928128;29;20651;-70
2021/12/19 13:55:14;;;;;;;21.60;10.80;;;;;;;;;;4925943;29;20638;-69
2021/12/19 13:58:21;;;;;;;23.13;10.97;;;;;;;;;;4937864;29;20720;-70
2021/12/19 14:01:36;;;;;;;34.03;14.33;;;;;;;;;;4953270;29;20669;-70
2021/12/19 14:04:41;;;;;;;23.23;10.50;;;;;;;;;;4956860;29;20564;-71
2021/12/19 14:07:45;;;;;;;21.50;10.50;;;;;;;;;;4926122;29;20622;-70
2021/12/19 14:11:20;;;;;;;22.77;11.17;;;;;;;;;;4925784;29;20700;-71
2021/12/19 14:14:31;;;;;;;22.93;11.23;;;;;;;;;;4953208;29;21219;-71
2021/12/19 14:17:35;;;;;;;20.10;10.33;;;;;;;;;;4933114;29;20594;-72
2021/12/19 14:20:39;;;;;;;23.47;10.33;;;;;;;;;;4944647;29;20653;-70
2021/12/19 14:23:44;;;;;;;22.33;10.37;;;;;;;;;;4925806;29;20623;-71
2021/12/19 14:26:51;;;;;;;21.10;10.00;;;;;;;;;;4936377;29;20611;-70
2021/12/19 14:29:55;;;;;;;34.70;17.97;;;;;;;;;;4944268;29;20582;-70
2021/12/19 14:33:00;;;;;;;23.93;12.47;;;;;;;;;;4956320;29;21023;-70
2021/12/19 14:36:11;;;;;;;67.97;37.37;;;;;;;;;;4956262;29;20924;-70
2021/12/19 14:39:23;;;;;;;76.20;40.83;;;;;;;;;;4955385;29;20601;-69
2021/12/19 14:42:33;;;;;;;23.97;13.50;;;;;;;;;;4955615;29;20670;-70
2021/12/19 14:45:45;;;;;;;37.10;20.63;;;;;;;;;;4956054;29;20566;-70
2021/12/19 14:48:49;;;;;;;23.07;11.67;;;;;;;;;;4955405;29;20555;-71
2021/12/19 14:51:58;;;;;;;17.23;9.37;;;;;;;;;;4943804;29;20655;-70
2021/12/19 14:55:14;;;;;;;16.23;8.27;;;;;;;;;;4955903;29;21076;-70
2021/12/19 14:58:20;;;;;;;15.77;9.13;;;;;;;;;;4955472;29;20649;-70
2021/12/19 15:01:27;;;;;;;15.40;8.53;;;;;;;;;;4955936;29;20611;-70
2021/12/19 15:04:31;;;;;;;18.43;9.30;;;;;;;;;;4955654;29;20954;-69
2021/12/19 15:07:42;;;;;;;18.00;9.67;;;;;;;;;;4936761;29;20533;-70
2021/12/19 15:10:47;;;;;;;28.53;11.77;;;;;;;;;;4924507;29;20603;-71
2021/12/19 15:13:52;;;;;;;21.70;11.13;;;;;;;;;;4949893;29;21280;-71
2021/12/19 15:16:56;;;;;;;36.23;20.00;;;;;;;;;;4955742;29;20555;-70
2021/12/19 15:20:00;;;;;;;59.30;33.07;;;;;;;;;;4933982;29;20218;-70
2021/12/19 15:23:05;;;;;;;38.70;22.60;;;;;;;;;;4948504;29;20612;-70
2021/12/19 15:26:14;;;;;;;35.87;17.97;;;;;;;;;;4951917;29;21179;-70
2021/12/19 15:29:18;;;;;;;17.27;10.83;;;;;;;;;;4951359;28;21154;-71
2021/12/19 15:32:22;;;;;;;18.73;11.43;;;;;;;;;;4930294;29;20670;-71
2021/12/19 15:35:27;;;;;;;21.03;14.47;;;;;;;;;;4951828;29;20579;-71
2021/12/19 15:38:33;;;;;;;18.63;9.77;;;;;;;;;;4932753;29;20575;-70
2021/12/19 15:41:37;;;;;;;17.83;9.47;;;;;;;;;;4910001;29;21278;-70
2021/12/19 15:44:41;;;;;;;16.47;8.87;;;;;;;;;;4934036;29;21179;-71
2021/12/19 15:47:46;;;;;;;14.47;7.97;;;;;;;;;;4939817;29;20607;-71
2021/12/19 15:50:50;;;;;;;13.00;8.20;;;;;;;;;;4951460;29;21216;-71
2021/12/19 15:53:55;;;;;;;18.43;10.50;;;;;;;;;;4939170;29;20563;-71
2021/12/19 15:57:00;;;;;;;70.97;40.53;;;;;;;;;;4909170;29;20624;-71
2021/12/19 16:00:06;;;;;;;32.40;18.17;;;;;;;;;;4932216;29;20614;-71
2021/12/19 16:03:19;;;;;;;29.20;16.17;;;;;;;;;;4941293;29;20602;-71
2021/12/19 16:06:24;;;;;;;18.60;11.67;;;;;;;;;;4951285;29;20588;-70
2021/12/19 16:09:28;;;;;;;17.10;10.27;;;;;;;;;;4938471;29;20606;-71
2021/12/19 16:12:33;;;;;;;14.40;9.93;;;;;;;;;;4951823;29;20657;-71
2021/12/19 16:15:37;;;;;;;14.53;8.53;;;;;;;;;;4939492;29;21120;-71
2021/12/19 16:18:41;;;;;;;14.93;7.90;;;;;;;;;;4951340;29;21102;-70
2021/12/19 16:21:46;;;;;;;13.50;7.40;;;;;;;;;;4939452;29;20615;-70
2021/12/19 16:24:50;;;;;;;14.27;7.90;;;;;;;;;;4951367;29;21167;-70
2021/12/19 16:27:54;;;;;;;13.40;7.73;;;;;;;;;;4939562;29;20567;-71
2021/12/19 16:30:58;;;;;;;12.80;7.60;;;;;;;;;;4940389;29;20957;-71
2021/12/19 16:34:05;;;;;;;13.57;7.57;;;;;;;;;;4951430;29;20567;-71
2021/12/19 16:37:09;;;;;;;15.57;9.37;;;;;;;;;;4950674;29;20627;-71
2021/12/19 16:40:14;;;;;;;10.43;7.70;;;;;;;;;;4952354;28;20963;-71
2021/12/19 16:43:31;;;;;;;15.57;9.20;;;;;;;;;;4954043;29;20917;-71
2021/12/19 16:46:40;;;;;;;13.80;8.73;;;;;;;;;;4954777;29;20610;-71
2021/12/19 16:49:44;;;;;;;14.67;8.83;;;;;;;;;;4954851;29;21123;-71
2021/12/19 16:52:49;;;;;;;17.40;11.43;;;;;;;;;;4954184;29;20662;-71
2021/12/19 16:55:53;;;;;;;12.27;8.67;;;;;;;;;;4954289;29;21327;-70
2021/12/19 16:58:57;;;;;;;96.50;48.87;;;;;;;;;;4954346;29;20933;-71
2021/12/19 17:02:01;;;;;;;37.87;20.80;;;;;;;;;;4954500;29;20654;-71
2021/12/19 17:05:05;;;;;;;36.33;25.07;;;;;;;;;;4954339;29;20570;-71
2021/12/19 17:08:09;;;;;;;23.20;16.60;;;;;;;;;;4954077;29;20574;-71
2021/12/19 17:11:15;;;;;;;25.70;16.63;;;;;;;;;;4942649;29;20669;-71
2021/12/19 17:14:21;;;;;;;27.30;17.00;;;;;;;;;;4953639;29;21138;-71
2021/12/19 17:17:25;;;;;;;24.37;15.57;;;;;;;;;;4954216;29;20570;-71
2021/12/19 17:20:29;;;;;;;14.43;9.43;;;;;;;;;;4944134;29;20658;-71
2021/12/19 17:23:33;;;;;;;16.17;9.87;;;;;;;;;;4942514;29;20606;-70
2021/12/19 17:26:39;;;;;;;15.90;9.47;;;;;;;;;;4954043;29;20559;-70
2021/12/19 17:29:45;;;;;;;11.60;7.67;;;;;;;;;;4923858;29;20584;-71
2021/12/19 17:32:49;;;;;;;17.17;10.73;;;;;;;;;;4934386;29;20632;-70
2021/12/19 17:35:53;;;;;;;14.77;8.90;;;;;;;;;;4950846;29;20642;-70
2021/12/19 17:38:58;;;;;;;17.27;9.37;;;;;;;;;;4940853;29;20615;-70
2021/12/19 17:42:04;;;;;;;13.73;8.63;;;;;;;;;;4941826;29;20643;-70
2021/12/19 17:45:08;;;;;;;17.10;10.43;;;;;;;;;;4953765;29;20567;-70
2021/12/19 17:48:12;;;;;;;14.77;9.20;;;;;;;;;;4941902;29;20611;-70
2021/12/19 17:51:17;;;;;;;13.00;8.70;;;;;;;;;;4948157;28;20646;-70
2021/12/19 17:54:21;;;;;;;17.83;10.03;;;;;;;;;;4953603;29;21267;-70
2021/12/19 17:57:25;;;;;;;15.43;9.37;;;;;;;;;;4953184;29;20630;-70
2021/12/19 18:00:30;;;;;;;13.20;9.00;;;;;;;;;;4952163;29;20634;-70
2021/12/19 18:03:35;;;;;;;14.93;10.07;;;;;;;;;;4948451;29;20606;-70
2021/12/19 18:06:39;;;;;;;15.43;9.97;;;;;;;;;;4941657;29;20579;-71
2021/12/19 18:09:43;;;;;;;16.80;10.57;;;;;;;;;;4952299;29;20567;-71
2021/12/19 18:12:49;;;;;;;17.57;10.20;;;;;;;;;;4941413;29;20630;-71
2021/12/19 18:15:55;;;;;;;20.60;12.37;;;;;;;;;;4953061;29;20598;-71
2021/12/19 18:19:00;;;;;;;18.60;11.47;;;;;;;;;;4922343;29;21138;-70
2021/12/19 18:22:04;;;;;;;21.23;12.57;;;;;;;;;;4922283;29;20631;-71
2021/12/19 18:25:10;;;;;;;18.87;11.20;;;;;;;;;;4911681;29;20567;-70
2021/12/19 18:28:14;;;;;;;18.87;11.10;;;;;;;;;;4949103;29;20654;-71
2021/12/19 18:31:20;;;;;;;18.20;10.90;;;;;;;;;;4952684;29;21273;-70
2021/12/19 18:34:30;;;;;;;18.20;10.93;;;;;;;;;;4953111;29;20582;-70
2021/12/19 18:37:38;;;;;;;16.73;10.77;;;;;;;;;;4940921;29;20992;-71
2021/12/19 18:40:46;;;;;;;19.70;11.87;;;;;;;;;;4941930;29;20647;-71
2021/12/19 18:44:01;;;;;;;20.07;12.93;;;;;;;;;;4952324;29;21272;-70
2021/12/19 18:54:04;;;;;;;23.23;13.17;;;;;;;;;;4937631;29;20596;-70
2021/12/19 18:57:09;;;;;;;21.83;11.70;;;;;;;;;;4951541;29;20575;-70
2021/12/19 19:00:15;;;;;;;22.47;12.17;;;;;;;;;;4940452;29;20661;-71
2021/12/19 19:03:28;;;;;;;24.33;12.23;;;;;;;;;;4951853;28;20634;-70
2021/12/19 19:06:33;;;;;;;21.63;13.13;;;;;;;;;;4952321;29;21156;-70
2021/12/19 19:09:38;;;;;;;22.07;12.77;;;;;;;;;;4940441;29;21131;-70
2021/12/19 19:12:42;;;;;;;22.47;12.93;;;;;;;;;;4933727;29;20654;-70
2021/12/19 19:15:47;;;;;;;26.07;14.30;;;;;;;;;;4933137;29;20646;-70
2021/12/19 19:18:52;;;;;;;20.90;12.90;;;;;;;;;;4952997;29;21186;-71
2021/12/19 19:21:56;;;;;;;26.30;13.13;;;;;;;;;;4952128;29;21134;-70